カイエンヌ の空港の天気 - METARとTAF

カイエンヌ/ロシャンボー空港 ( SOCA / CAY ) - フランス領ギアナ カイエンヌ
飛行場実況気象(Metar)
観測時間02/23 11:00 GFT (02/23 14:00 UTC)
風向・風速北東 6m/s
視程10km以上
天気現象
少しの雲 雲底高度 400m
全天の4割程度の雲 雲底高度 640m
全天の8割程度の雲 雲底高度 910m
気温26℃
湿度89%
気圧1014hPa
METARSOCA 231400Z AUTO 05012KT 9999 FEW013 SCT021 BKN030 26/24 Q1014 NOSIG
過去の天気等 Google飛行場航空写真 Wunderground天気予報

過去48時間のMETAR

飛行場予報(TAF)
発表時間: 2/23 07:00 GFT (2/23 10:00 UTC)
予報対象時間: 23日9時 GFT ~ 24日9時 GFT
風向・風速北東 5m/s
視程10km以上
全天の4割程度の雲 雲底高度 760m
全天の8割程度の雲 雲底高度 1,370m
全天の8割程度の雲 雲底高度 2,440m
23日13時 GFT ~ 23日19時 GFT に一時的に
視程3,000m
天気現象しゅう雨
全天の4割程度の塔状積雲 雲底高度 460m
23日15時 GFT ~ 23日19時 GFT に 確率 30% で一時的に
視程1,000m
天気現象雷雨
少しの積乱雲 雲底高度 370m
23日19時 GFT ~ 23日20時 GFT に徐々に
風向・風速不定 2m/s
24日3時 GFT ~ 24日8時 GFT に一時的に
視程2,000m
天気現象しゅう雨
全天の4割程度の塔状積雲 雲底高度 370m
TAF SOCA 231000Z 2312/2412 05010KT 9999 SCT025 BKN045 BKN080
TEMPO 2316/2322 3000 SHRA SCT015TCU
PROB30 TEMPO 2318/2322 1000 TSRA FEW012CB
BECMG 2322/2323 VRB03KT
TEMPO 2406/2411 2000 SHRA SCT012TCU